sensor_id;sensor_type;location;lat;lon;timestamp;temperature;humidity
45313;SHT31;68267;51.540;5.854;2023-07-13T09:17:05;19.4;69.9
45313;SHT31;68267;51.540;5.854;2023-07-13T09:30:25;19.6;68.2
45313;SHT31;68267;51.540;5.854;2023-07-13T09:43:44;19.5;71.6
45313;SHT31;68267;51.540;5.854;2023-07-13T09:57:04;20.3;66.9
45313;SHT31;68267;51.540;5.854;2023-07-13T10:10:24;20.8;63.6
45313;SHT31;68267;51.540;5.854;2023-07-13T10:23:44;20.9;62.2
45313;SHT31;68267;51.540;5.854;2023-07-13T10:37:03;21.2;65.7
45313;SHT31;68267;51.540;5.854;2023-07-13T10:50:23;21.4;59.9
45313;SHT31;68267;51.540;5.854;2023-07-13T11:03:42;21.3;62.5
45313;SHT31;68267;51.540;5.854;2023-07-13T11:17:02;21.1;61.3
45313;SHT31;68267;51.540;5.854;2023-07-13T11:30:22;20.4;62.5
45313;SHT31;68267;51.540;5.854;2023-07-13T11:43:42;20.5;66.4
45313;SHT31;68267;51.540;5.854;2023-07-13T11:57:01;21.5;61.1
45313;SHT31;68267;51.540;5.854;2023-07-13T12:10:21;20.7;63.8
45313;SHT31;68267;51.540;5.854;2023-07-13T12:23:41;20.7;65.7
45313;SHT31;68267;51.540;5.854;2023-07-13T12:37:00;21.4;66.2
45313;SHT31;68267;51.540;5.854;2023-07-13T12:50:20;19.9;67.0
45313;SHT31;68267;51.540;5.854;2023-07-13T13:03:40;21.7;65.9
45313;SHT31;68267;51.540;5.854;2023-07-13T13:16:59;23.1;55.2
45313;SHT31;68267;51.540;5.854;2023-07-13T13:30:19;21.7;57.1
45313;SHT31;68267;51.540;5.854;2023-07-13T13:43:39;20.6;61.9
45313;SHT31;68267;51.540;5.854;2023-07-13T13:56:58;18.1;74.1
45313;SHT31;68267;51.540;5.854;2023-07-13T14:10:18;17.6;79.9
45313;SHT31;68267;51.540;5.854;2023-07-13T14:23:38;18.2;80.9
45313;SHT31;68267;51.540;5.854;2023-07-13T14:36:57;18.9;79.7
45313;SHT31;68267;51.540;5.854;2023-07-13T14:50:17;19.3;75.0
45313;SHT31;68267;51.540;5.854;2023-07-13T15:03:36;19.5;73.8
45313;SHT31;68267;51.540;5.854;2023-07-13T15:16:56;20.0;70.2
45313;SHT31;68267;51.540;5.854;2023-07-13T15:30:16;20.1;66.1
45313;SHT31;68267;51.540;5.854;2023-07-13T15:43:36;20.2;65.9
45313;SHT31;68267;51.540;5.854;2023-07-13T15:56:55;20.1;65.4
45313;SHT31;68267;51.540;5.854;2023-07-13T16:10:15;20.3;66.8
45313;SHT31;68267;51.540;5.854;2023-07-13T16:23:35;20.6;65.3
45313;SHT31;68267;51.540;5.854;2023-07-13T16:36:55;20.8;62.2
45313;SHT31;68267;51.540;5.854;2023-07-13T16:50:14;20.3;64.9
45313;SHT31;68267;51.540;5.854;2023-07-13T17:03:34;20.3;66.5
45313;SHT31;68267;51.540;5.854;2023-07-13T17:16:54;20.9;64.9
45313;SHT31;68267;51.540;5.854;2023-07-13T17:30:14;20.8;61.8
45313;SHT31;68267;51.540;5.854;2023-07-13T17:43:34;20.5;64.4
45313;SHT31;68267;51.540;5.854;2023-07-13T17:56:53;20.2;67.0
45313;SHT31;68267;51.540;5.854;2023-07-13T18:10:13;20.0;65.6
45313;SHT31;68267;51.540;5.854;2023-07-13T18:23:33;20.1;65.2
45313;SHT31;68267;51.540;5.854;2023-07-13T18:36:52;20.0;64.8
45313;SHT31;68267;51.540;5.854;2023-07-13T18:50:12;19.9;66.7
45313;SHT31;68267;51.540;5.854;2023-07-13T19:03:32;19.8;68.8
45313;SHT31;68267;51.540;5.854;2023-07-13T19:16:52;19.4;69.4
45313;SHT31;68267;51.540;5.854;2023-07-13T19:30:12;19.2;70.1
45313;SHT31;68267;51.540;5.854;2023-07-13T19:43:31;19.0;71.0
45313;SHT31;68267;51.540;5.854;2023-07-13T19:56:51;18.8;71.6
45313;SHT31;68267;51.540;5.854;2023-07-13T20:10:10;18.4;73.2
45313;SHT31;68267;51.540;5.854;2023-07-13T20:23:30;18.1;75.0
45313;SHT31;68267;51.540;5.854;2023-07-13T20:36:50;17.7;76.1
45313;SHT31;68267;51.540;5.854;2023-07-13T20:50:10;17.5;77.0
45313;SHT31;68267;51.540;5.854;2023-07-13T21:03:29;17.4;78.0
45313;SHT31;68267;51.540;5.854;2023-07-13T21:16:49;17.1;78.1
45313;SHT31;68267;51.540;5.854;2023-07-13T21:30:09;17.0;78.3
45313;SHT31;68267;51.540;5.854;2023-07-13T21:43:28;16.9;80.4
45313;SHT31;68267;51.540;5.854;2023-07-13T21:56:48;17.0;80.2
45313;SHT31;68267;51.540;5.854;2023-07-13T22:10:08;17.1;80.5
45313;SHT31;68267;51.540;5.854;2023-07-13T22:23:27;17.1;80.9
45313;SHT31;68267;51.540;5.854;2023-07-13T22:36:47;16.7;82.8
45313;SHT31;68267;51.540;5.854;2023-07-13T22:50:07;16.7;83.3
45313;SHT31;68267;51.540;5.854;2023-07-13T23:03:27;16.9;83.5
45313;SHT31;68267;51.540;5.854;2023-07-13T23:16:46;16.7;84.5
45313;SHT31;68267;51.540;5.854;2023-07-13T23:30:06;16.8;84.7
45313;SHT31;68267;51.540;5.854;2023-07-13T23:43:26;16.6;84.6
45313;SHT31;68267;51.540;5.854;2023-07-13T23:56:46;16.3;84.6
